Time;durP1;ratioP1;P1;durP2;ratioP2;P2;SDS_P1;SDS_P2;PMS_P1;PMS_P2;Temp;Humidity;BMP_temperature;BMP_pressure;BME280_temperature;BME280_humidity;BME280_pressure;Samples;Min_cycle;Max_cycle;Signal;HPM_P1;HPM_P2
2021/05/19 00:00:37;;;;;;;1.20;1.00;;;10.30;98.00;;;;;;5071885;28;20479;-72
2021/05/19 00:03:04;;;;;;;1.20;0.90;;;10.30;98.00;;;;;;5069482;28;20465;-72
2021/05/19 00:05:31;;;;;;;1.20;1.00;;;10.40;98.00;;;;;;5072070;28;20497;-73
2021/05/19 00:07:58;;;;;;;1.20;0.90;;;10.30;98.00;;;;;;5068730;28;20466;-72
2021/05/19 00:10:24;;;;;;;1.20;0.90;;;10.20;98.00;;;;;;5071104;28;20968;-72
2021/05/19 00:12:51;;;;;;;1.20;1.00;;;10.30;98.00;;;;;;5068015;28;20456;-72
2021/05/19 00:15:17;;;;;;;1.20;0.90;;;10.30;98.00;;;;;;5070981;28;20465;-72
2021/05/19 00:17:46;;;;;;;1.20;1.00;;;10.40;98.00;;;;;;5068987;28;21193;-72
2021/05/19 00:20:16;;;;;;;1.20;0.90;;;10.40;98.00;;;;;;5071615;28;20928;-72
2021/05/19 00:22:43;;;;;;;1.37;1.33;;;10.40;98.00;;;;;;5067970;28;20481;-72
2021/05/19 00:25:11;;;;;;;1.20;1.00;;;10.40;98.00;;;;;;5071615;28;20460;-72
2021/05/19 00:27:37;;;;;;;4.00;1.10;;;10.40;98.00;;;;;;5069083;28;20459;-72
2021/05/19 00:30:06;;;;;;;1.20;1.00;;;10.50;98.00;;;;;;5071708;28;20795;-72
2021/05/19 00:32:36;;;;;;;1.20;0.90;;;10.50;98.00;;;;;;5068117;28;20564;-72
2021/05/19 00:35:03;;;;;;;1.20;1.00;;;10.50;98.00;;;;;;5071912;28;20456;-72
2021/05/19 00:37:31;;;;;;;1.20;0.90;;;10.60;98.00;;;;;;5068358;28;20455;-72
2021/05/19 00:39:57;;;;;;;1.20;0.90;;;10.60;98.00;;;;;;5071493;28;20452;-72
2021/05/19 00:42:24;;;;;;;1.20;0.90;;;10.60;98.00;;;;;;5068756;28;20457;-73
2021/05/19 00:44:50;;;;;;;1.20;1.00;;;10.60;98.00;;;;;;5070780;28;20445;-72
2021/05/19 00:47:33;;;;;;;1.20;1.00;;;10.60;98.00;;;;;;5067857;28;20445;-73
2021/05/19 00:50:00;;;;;;;1.30;1.10;;;10.50;98.00;;;;;;5071726;28;20464;-72
2021/05/19 00:52:27;;;;;;;1.30;1.00;;;10.60;98.00;;;;;;5068611;28;20465;-72
2021/05/19 00:54:55;;;;;;;2.17;1.17;;;10.70;98.00;;;;;;5071370;28;20510;-72
2021/05/19 00:57:21;;;;;;;1.30;1.10;;;10.70;98.00;;;;;;5068463;28;20489;-72
2021/05/19 00:59:49;;;;;;;1.20;0.90;;;10.70;98.00;;;;;;5071398;28;20944;-72
2021/05/19 01:02:15;;;;;;;1.20;1.00;;;10.70;98.00;;;;;;5068142;28;20480;-72
2021/05/19 01:04:42;;;;;;;1.20;0.90;;;10.70;98.00;;;;;;5071099;28;20458;-72
2021/05/19 01:07:18;;;;;;;1.20;0.90;;;10.70;98.00;;;;;;5072175;28;20924;-72
2021/05/19 01:09:47;;;;;;;1.20;0.90;;;10.60;98.00;;;;;;5075541;28;20450;-73
2021/05/19 01:12:16;;;;;;;1.20;1.00;;;10.70;98.00;;;;;;5072579;28;20449;-72
2021/05/19 01:14:44;;;;;;;1.20;1.00;;;10.80;98.00;;;;;;5074903;28;20578;-72
2021/05/19 01:17:11;;;;;;;1.20;1.00;;;10.80;98.00;;;;;;5072382;28;20466;-72
2021/05/19 01:19:39;;;;;;;1.20;1.00;;;10.90;98.00;;;;;;5075049;28;21000;-72
2021/05/19 01:22:09;;;;;;;1.20;0.93;;;10.80;98.00;;;;;;5071833;28;20574;-72
2021/05/19 01:24:36;;;;;;;1.20;1.00;;;10.80;98.00;;;;;;5074893;28;20459;-72
2021/05/19 01:27:03;;;;;;;1.20;0.90;;;10.80;98.00;;;;;;5072291;28;20806;-72
2021/05/19 01:29:32;;;;;;;1.20;0.90;;;10.80;98.00;;;;;;5074882;28;20860;-72
2021/05/19 01:31:59;;;;;;;1.20;1.10;;;10.80;98.00;;;;;;5072274;28;20463;-72
2021/05/19 01:34:27;;;;;;;1.20;1.00;;;10.80;98.00;;;;;;5075193;28;20464;-72
2021/05/19 01:36:54;;;;;;;1.20;1.00;;;10.80;98.00;;;;;;5087855;28;20497;-72
2021/05/19 01:39:23;;;;;;;1.20;1.00;;;10.80;98.00;;;;;;5074837;28;20984;-72
2021/05/19 01:41:50;;;;;;;1.20;1.00;;;10.70;98.00;;;;;;5071667;28;20522;-72
2021/05/19 01:44:21;;;;;;;1.20;1.00;;;10.80;98.00;;;;;;5074540;28;20454;-72
2021/05/19 01:46:47;;;;;;;2.07;1.20;;;10.80;98.00;;;;;;5072070;28;20449;-72
2021/05/19 01:49:15;;;;;;;1.20;1.10;;;10.80;98.00;;;;;;5074751;28;20477;-72
2021/05/19 01:51:42;;;;;;;1.20;1.00;;;10.90;98.00;;;;;;5071797;28;20466;-72
2021/05/19 01:54:15;;;;;;;1.20;1.03;;;10.90;98.00;;;;;;5074574;28;21062;-72
2021/05/19 01:56:43;;;;;;;3.73;1.57;;;10.90;98.00;;;;;;5072018;28;20930;-72
2021/05/19 01:59:10;;;;;;;1.30;1.00;;;10.90;98.00;;;;;;5074400;28;20534;-72
2021/05/19 02:01:36;;;;;;;1.30;1.10;;;10.90;98.00;;;;;;5071417;28;20480;-72
2021/05/19 02:04:08;;;;;;;1.20;1.17;;;10.90;98.00;;;;;;5074255;28;20465;-72
2021/05/19 02:06:45;;;;;;;1.20;1.10;;;10.90;98.00;;;;;;5071672;28;20480;-72
2021/05/19 02:09:12;;;;;;;1.20;1.00;;;10.90;98.00;;;;;;5074180;28;20467;-72
2021/05/19 02:11:39;;;;;;;1.20;0.90;;;10.80;98.00;;;;;;5071535;28;20458;-72
2021/05/19 02:14:07;;;;;;;1.20;1.10;;;10.80;98.00;;;;;;5073924;28;20520;-72
2021/05/19 02:16:34;;;;;;;1.20;1.00;;;10.70;98.00;;;;;;5070965;28;20474;-72
2021/05/19 02:19:00;;;;;;;1.20;0.97;;;10.70;98.00;;;;;;5073320;28;20803;-72
2021/05/19 02:21:26;;;;;;;1.33;1.10;;;10.70;98.00;;;;;;5071266;28;20491;-72
2021/05/19 02:23:54;;;;;;;1.20;1.00;;;10.60;98.00;;;;;;5073871;28;20486;-72
2021/05/19 02:26:20;;;;;;;1.20;1.00;;;10.50;98.00;;;;;;5071210;28;21182;-72
2021/05/19 02:28:47;;;;;;;1.20;1.10;;;10.50;98.00;;;;;;5073819;28;20861;-72
2021/05/19 02:31:15;;;;;;;1.23;1.07;;;10.60;98.00;;;;;;5070797;28;20457;-72
2021/05/19 02:33:41;;;;;;;1.20;0.90;;;10.60;98.00;;;;;;5074060;28;20502;-72
2021/05/19 02:36:08;;;;;;;1.30;1.00;;;10.60;98.00;;;;;;5071049;28;20788;-72
2021/05/19 02:38:35;;;;;;;1.20;0.90;;;10.60;98.00;;;;;;5073962;28;20450;-72
2021/05/19 02:41:02;;;;;;;1.50;1.43;;;10.60;98.00;;;;;;5072834;28;20542;-72
2021/05/19 02:43:29;;;;;;;1.20;1.03;;;10.60;98.00;;;;;;5073440;28;20457;-72
2021/05/19 02:45:56;;;;;;;1.20;1.10;;;10.60;98.00;;;;;;5073580;28;20462;-72
2021/05/19 02:48:23;;;;;;;1.23;1.00;;;10.70;98.00;;;;;;5070789;28;20467;-72
2021/05/19 02:50:50;;;;;;;1.40;1.00;;;10.50;98.00;;;;;;5073421;28;20472;-72
2021/05/19 02:53:17;;;;;;;1.20;1.00;;;10.50;98.00;;;;;;5070655;28;20506;-72
2021/05/19 02:55:43;;;;;;;1.40;1.20;;;10.60;98.00;;;;;;5073412;28;20461;-72
2021/05/19 02:58:10;;;;;;;1.20;1.00;;;10.60;98.00;;;;;;5070510;28;21002;-72
2021/05/19 03:00:36;;;;;;;1.20;0.90;;;10.60;98.00;;;;;;5072909;28;20476;-72
2021/05/19 03:03:03;;;;;;;1.20;0.90;;;10.60;98.00;;;;;;5070351;28;20824;-72
2021/05/19 03:05:31;;;;;;;1.30;1.00;;;10.70;98.00;;;;;;5072932;28;20457;-72
2021/05/19 03:07:58;;;;;;;1.20;1.00;;;10.60;98.00;;;;;;5070523;28;20466;-72
2021/05/19 03:10:25;;;;;;;1.20;1.00;;;10.60;98.00;;;;;;5072866;28;20449;-72
2021/05/19 03:12:52;;;;;;;1.20;1.00;;;10.70;98.00;;;;;;5070167;28;20972;-72
2021/05/19 03:15:19;;;;;;;1.20;1.00;;;10.60;98.00;;;;;;5072726;28;20968;-72
2021/05/19 03:17:47;;;;;;;1.20;1.00;;;10.50;98.00;;;;;;5070186;28;20466;-72
2021/05/19 03:20:15;;;;;;;1.60;1.60;;;10.60;98.00;;;;;;5072587;28;20464;-71
2021/05/19 03:22:42;;;;;;;1.30;1.10;;;10.70;98.00;;;;;;5071245;28;20479;-72
2021/05/19 03:25:10;;;;;;;1.20;0.90;;;10.70;98.00;;;;;;5072497;28;20464;-72
2021/05/19 03:27:36;;;;;;;1.20;0.93;;;10.70;98.00;;;;;;5070222;28;20468;-72
2021/05/19 03:30:06;;;;;;;1.20;1.10;;;10.70;98.00;;;;;;5072520;28;20530;-72
2021/05/19 03:32:32;;;;;;;1.20;1.00;;;10.70;98.00;;;;;;5070164;28;20454;-72
2021/05/19 03:34:59;;;;;;;1.43;1.10;;;10.40;98.00;;;;;;5072729;28;20452;-72
2021/05/19 03:37:25;;;;;;;1.63;1.10;;;10.30;98.00;;;;;;5070332;28;20455;-71
2021/05/19 03:39:53;;;;;;;1.20;1.00;;;10.30;98.00;;;;;;5072603;28;20458;-72
2021/05/19 03:42:20;;;;;;;1.20;0.90;;;10.30;98.00;;;;;;5070970;28;20594;-72
2021/05/19 03:44:46;;;;;;;1.20;0.90;;;10.40;98.00;;;;;;5072502;28;20806;-72
2021/05/19 03:47:13;;;;;;;1.67;1.10;;;10.40;98.00;;;;;;5069976;28;20473;-71
2021/05/19 03:49:40;;;;;;;1.23;1.03;;;10.40;98.00;;;;;;5072232;28;20464;-72
2021/05/19 03:52:08;;;;;;;1.20;1.00;;;10.30;98.00;;;;;;5069941;28;20454;-71
2021/05/19 03:54:35;;;;;;;1.37;1.20;;;10.40;98.00;;;;;;5072315;28;20456;-71
2021/05/19 03:57:04;;;;;;;1.20;1.00;;;10.50;98.00;;;;;;5069720;28;20449;-71
2021/05/19 03:59:31;;;;;;;1.20;1.00;;;10.60;98.00;;;;;;5072024;28;20484;-71
2021/05/19 04:01:57;;;;;;;1.20;0.90;;;10.70;98.00;;;;;;5070080;28;20575;-72
2021/05/19 04:04:24;;;;;;;1.20;1.00;;;10.60;98.00;;;;;;5071948;28;20796;-71
2021/05/19 04:06:50;;;;;;;1.20;1.00;;;10.50;98.00;;;;;;5069613;28;20464;-72
2021/05/19 04:09:17;;;;;;;1.20;0.90;;;10.40;98.00;;;;;;5071874;28;20455;-71
2021/05/19 04:11:44;;;;;;;1.20;1.13;;;10.50;98.00;;;;;;5069527;28;20453;-71
2021/05/19 04:14:12;;;;;;;1.20;1.00;;;10.40;98.00;;;;;;5071896;28;20512;-72
2021/05/19 04:16:39;;;;;;;1.20;1.00;;;10.40;98.00;;;;;;5069448;28;21020;-71
2021/05/19 04:19:05;;;;;;;1.20;1.00;;;10.40;98.00;;;;;;5071718;28;20498;-71
2021/05/19 04:21:32;;;;;;;1.20;0.90;;;10.40;98.00;;;;;;5069279;28;20549;-71
2021/05/19 04:23:59;;;;;;;1.20;1.00;;;10.50;98.00;;;;;;5071685;28;20454;-71
2021/05/19 04:26:25;;;;;;;2.07;1.37;;;10.50;98.00;;;;;;5069294;28;20466;-72
2021/05/19 04:28:52;;;;;;;1.20;1.00;;;10.40;98.00;;;;;;5071632;28;20457;-71
2021/05/19 04:31:20;;;;;;;1.30;1.20;;;10.40;98.00;;;;;;5069090;28;20457;-71
2021/05/19 04:33:47;;;;;;;1.30;1.00;;;10.40;98.00;;;;;;5071569;28;20453;-71
2021/05/19 04:36:15;;;;;;;1.30;1.00;;;10.40;98.00;;;;;;5070156;28;20457;-71
2021/05/19 04:38:42;;;;;;;1.20;1.00;;;10.40;98.00;;;;;;5071531;28;20823;-72
2021/05/19 04:41:09;;;;;;;2.70;1.10;;;10.40;98.00;;;;;;5070910;28;20484;-71
2021/05/19 04:43:36;;;;;;;1.20;0.90;;;10.30;98.00;;;;;;5069143;28;20456;-71
2021/05/19 04:46:02;;;;;;;1.20;0.90;;;10.40;98.00;;;;;;5071771;28;20531;-71
2021/05/19 04:48:30;;;;;;;1.20;1.00;;;10.40;98.00;;;;;;5069297;28;20457;-71
2021/05/19 04:50:56;;;;;;;1.20;1.00;;;10.30;98.00;;;;;;5071589;28;20456;-71
2021/05/19 04:53:23;;;;;;;1.20;1.10;;;10.30;98.00;;;;;;5069200;28;20460;-71
2021/05/19 04:55:49;;;;;;;1.20;1.00;;;10.20;98.00;;;;;;5071643;28;20457;-71
2021/05/19 04:58:16;;;;;;;1.20;1.00;;;10.30;98.00;;;;;;5068864;28;20479;-71
2021/05/19 05:00:42;;;;;;;1.20;0.90;;;10.40;98.00;;;;;;5071418;28;20913;-71
2021/05/19 05:03:11;;;;;;;1.30;1.10;;;10.50;98.00;;;;;;5068994;28;20462;-71
2021/05/19 05:05:41;;;;;;;1.20;1.00;;;10.60;98.00;;;;;;5071404;28;20450;-71
2021/05/19 05:08:07;;;;;;;1.20;0.90;;;10.60;98.00;;;;;;5068853;28;20819;-71
2021/05/19 05:10:34;;;;;;;1.20;1.00;;;10.40;98.00;;;;;;5071421;28;20454;-71
2021/05/19 05:13:01;;;;;;;1.20;1.00;;;10.50;98.00;;;;;;5069074;28;20497;-72
2021/05/19 05:15:27;;;;;;;1.40;1.10;;;10.50;98.00;;;;;;5071373;28;20477;-72
2021/05/19 05:17:53;;;;;;;1.20;0.90;;;10.50;98.00;;;;;;5068711;28;20465;-72
2021/05/19 05:20:21;;;;;;;1.20;1.00;;;10.70;98.00;;;;;;5071206;28;20795;-72
2021/05/19 05:22:49;;;;;;;1.20;0.90;;;10.80;98.00;;;;;;5068499;28;20490;-71
2021/05/19 05:25:15;;;;;;;1.20;1.00;;;10.90;98.00;;;;;;5071175;28;20850;-71
2021/05/19 05:27:42;;;;;;;1.50;1.20;;;11.00;98.00;;;;;;5068318;28;20454;-71
2021/05/19 05:30:10;;;;;;;1.20;0.90;;;11.00;98.00;;;;;;5071170;28;20482;-71
2021/05/19 05:32:37;;;;;;;1.20;0.93;;;11.00;98.00;;;;;;5068251;28;20743;-71
2021/05/19 05:35:04;;;;;;;1.20;0.90;;;11.10;98.00;;;;;;5070767;28;20947;-71
2021/05/19 05:37:31;;;;;;;1.20;1.00;;;11.00;98.00;;;;;;5068214;28;20445;-71
2021/05/19 05:39:59;;;;;;;1.30;1.10;;;10.90;98.00;;;;;;5070885;28;20456;-71
2021/05/19 05:42:26;;;;;;;1.20;0.90;;;10.90;98.00;;;;;;5068391;28;20478;-71
2021/05/19 05:44:53;;;;;;;1.20;1.10;;;10.90;98.00;;;;;;5070986;28;20467;-71
2021/05/19 05:47:21;;;;;;;1.20;1.00;;;10.80;98.00;;;;;;5068238;28;20462;-71
2021/05/19 05:49:49;;;;;;;1.30;1.10;;;10.80;98.00;;;;;;5069882;28;20493;-71
2021/05/19 05:52:16;;;;;;;1.20;0.90;;;10.70;98.00;;;;;;5068652;28;20470;-71
2021/05/19 05:54:43;;;;;;;1.37;1.00;;;10.70;98.00;;;;;;5074214;28;20455;-71
2021/05/19 05:57:20;;;;;;;1.20;0.90;;;10.70;98.00;;;;;;5071985;28;20833;-71
2021/05/19 05:59:47;;;;;;;2.23;1.43;;;10.70;98.00;;;;;;5074363;28;20461;-72
2021/05/19 06:02:19;;;;;;;1.20;1.00;;;10.80;98.00;;;;;;5071368;28;20488;-71
2021/05/19 06:04:45;;;;;;;1.30;1.10;;;10.80;98.00;;;;;;5074314;28;20539;-71
2021/05/19 06:07:12;;;;;;;1.20;0.97;;;10.90;98.00;;;;;;5071526;28;20484;-71
2021/05/19 06:09:42;;;;;;;1.70;1.40;;;10.90;98.00;;;;;;5074203;28;20458;-70
2021/05/19 06:12:08;;;;;;;1.20;1.00;;;11.00;98.00;;;;;;5070140;28;20512;-71
2021/05/19 06:14:36;;;;;;;1.40;1.00;;;11.10;98.00;;;;;;5089150;28;20461;-71
2021/05/19 06:17:05;;;;;;;1.20;1.00;;;11.10;98.00;;;;;;5071215;28;20468;-71
2021/05/19 06:19:31;;;;;;;1.20;0.97;;;11.30;98.00;;;;;;5074207;28;20923;-71
2021/05/19 06:21:58;;;;;;;1.20;0.90;;;11.40;98.00;;;;;;5070963;28;21028;-71
2021/05/19 06:24:25;;;;;;;1.20;1.00;;;11.50;98.00;;;;;;5073719;28;20460;-71
2021/05/19 06:26:51;;;;;;;1.20;0.90;;;11.50;98.00;;;;;;5070919;28;20509;-71
2021/05/19 06:29:18;;;;;;;1.30;1.10;;;11.50;98.00;;;;;;5073932;28;20471;-71
2021/05/19 06:31:45;;;;;;;1.40;1.10;;;11.50;98.00;;;;;;5070629;28;20466;-71
2021/05/19 06:34:12;;;;;;;1.20;1.00;;;11.60;98.00;;;;;;5073766;28;20455;-71
2021/05/19 06:36:42;;;;;;;1.20;1.00;;;11.70;98.00;;;;;;5070251;28;20456;-72
2021/05/19 06:39:08;;;;;;;1.20;1.00;;;11.80;98.00;;;;;;5073067;28;20451;-72
2021/05/19 06:41:37;;;;;;;1.20;0.90;;;12.00;98.00;;;;;;5070027;28;20488;-72
2021/05/19 06:44:04;;;;;;;1.20;1.00;;;12.10;98.00;;;;;;5072794;28;20462;-72
2021/05/19 06:46:40;;;;;;;1.20;1.10;;;12.20;98.00;;;;;;5070966;28;20459;-71
2021/05/19 06:49:07;;;;;;;2.27;1.20;;;12.20;98.00;;;;;;5073377;28;20457;-71
2021/05/19 06:51:34;;;;;;;1.20;0.90;;;12.20;98.00;;;;;;5070736;28;20474;-71
2021/05/19 06:54:01;;;;;;;1.20;1.00;;;12.10;98.00;;;;;;5073409;28;20467;-70
2021/05/19 06:56:32;;;;;;;1.20;1.00;;;12.20;98.00;;;;;;5072004;28;20462;-72
2021/05/19 06:59:00;;;;;;;1.20;1.00;;;12.30;98.00;;;;;;5073103;28;20513;-71
2021/05/19 07:01:28;;;;;;;1.20;0.97;;;12.40;98.00;;;;;;5072289;28;20511;-71
2021/05/19 07:03:55;;;;;;;2.23;1.47;;;12.50;98.00;;;;;;5070519;28;20461;-71
2021/05/19 07:06:23;;;;;;;1.20;0.90;;;12.60;98.00;;;;;;5073069;28;20460;-71
2021/05/19 07:08:50;;;;;;;1.20;1.10;;;12.60;98.00;;;;;;5067935;28;20601;-71
2021/05/19 07:11:18;;;;;;;1.20;1.00;;;12.60;98.00;;;;;;5072847;28;20459;-71
2021/05/19 07:13:44;;;;;;;1.30;1.10;;;12.60;98.00;;;;;;5068855;28;21016;-71
2021/05/19 07:16:18;;;;;;;1.20;0.90;;;12.50;98.00;;;;;;5072851;28;20951;-72
2021/05/19 07:18:45;;;;;;;1.20;1.00;;;12.50;98.00;;;;;;5069821;28;20456;-71
2021/05/19 07:21:12;;;;;;;1.20;1.00;;;12.40;98.00;;;;;;5073096;28;20488;-71
2021/05/19 07:23:39;;;;;;;1.20;1.10;;;12.50;98.00;;;;;;5069315;28;20455;-71
2021/05/19 07:26:06;;;;;;;1.30;1.20;;;12.40;98.00;;;;;;5071669;28;20459;-71
2021/05/19 07:28:33;;;;;;;1.20;1.10;;;12.30;98.00;;;;;;5068003;28;20456;-71
2021/05/19 07:30:59;;;;;;;1.60;1.27;;;12.30;98.00;;;;;;5072267;28;20494;-72
2021/05/19 07:33:26;;;;;;;1.20;1.00;;;12.20;98.00;;;;;;5069089;28;20460;-71
2021/05/19 07:35:52;;;;;;;1.20;1.00;;;12.10;98.00;;;;;;5071630;28;20459;-71
2021/05/19 07:38:19;;;;;;;1.30;1.00;;;12.00;98.00;;;;;;5069163;28;20458;-70
2021/05/19 07:40:47;;;;;;;1.40;1.33;;;12.10;98.00;;;;;;5072071;28;20517;-72
2021/05/19 07:43:14;;;;;;;1.30;1.00;;;12.20;98.00;;;;;;5068876;28;20456;-71
2021/05/19 07:45:41;;;;;;;1.20;0.90;;;12.30;98.00;;;;;;5071268;28;20449;-71
2021/05/19 07:48:13;;;;;;;1.60;1.03;;;12.20;98.00;;;;;;5067530;28;20454;-72
2021/05/19 07:50:41;;;;;;;1.60;1.20;;;12.30;98.00;;;;;;5071133;28;20488;-72
2021/05/19 07:53:07;;;;;;;1.67;1.20;;;12.60;98.00;;;;;;5068743;28;20453;-72
2021/05/19 07:55:43;;;;;;;1.20;1.00;;;12.80;98.00;;;;;;5070733;28;20467;-72
2021/05/19 07:58:15;;;;;;;1.20;0.97;;;13.00;98.00;;;;;;5069066;28;20479;-72
2021/05/19 08:00:55;;;;;;;1.30;1.10;;;13.20;98.00;;;;;;5071109;28;20540;-72
2021/05/19 08:03:22;;;;;;;1.20;1.00;;;13.30;98.00;;;;;;5068536;28;20480;-72
2021/05/19 08:05:48;;;;;;;1.90;1.80;;;13.30;98.00;;;;;;5071392;28;20466;-72
2021/05/19 08:08:15;;;;;;;1.70;1.30;;;13.60;98.00;;;;;;5068593;28;20487;-72
2021/05/19 08:10:43;;;;;;;1.40;1.40;;;13.60;98.00;;;;;;5056631;28;20466;-72
2021/05/19 08:13:11;;;;;;;1.20;1.00;;;13.70;98.00;;;;;;5046803;28;20458;-72
2021/05/19 08:15:37;;;;;;;1.30;1.10;;;13.70;98.00;;;;;;5049881;28;20495;-72
2021/05/19 08:18:06;;;;;;;1.60;1.30;;;13.70;98.00;;;;;;5052676;28;20458;-72
2021/05/19 08:20:33;;;;;;;1.20;1.10;;;13.50;98.00;;;;;;5071089;28;20462;-72
2021/05/19 08:23:00;;;;;;;1.20;1.10;;;13.40;98.00;;;;;;5068340;28;20478;-72
2021/05/19 08:25:27;;;;;;;1.20;1.13;;;13.80;98.00;;;;;;5070845;28;20456;-70
2021/05/19 08:27:53;;;;;;;1.30;1.23;;;14.10;98.00;;;;;;5050762;28;20496;-69
2021/05/19 08:30:23;;;;;;;1.47;1.43;;;14.50;98.00;;;;;;5071064;28;20463;-71
2021/05/19 08:32:49;;;;;;;1.20;1.10;;;14.70;98.00;;;;;;5068334;28;20467;-71
2021/05/19 08:35:16;;;;;;;1.20;1.10;;;14.30;97.30;;;;;;5070821;28;20466;-72
2021/05/19 08:37:43;;;;;;;1.20;1.00;;;13.10;98.00;;;;;;5066833;28;20547;-71
2021/05/19 08:40:10;;;;;;;1.20;1.00;;;12.50;98.00;;;;;;5071084;28;20451;-72
2021/05/19 08:42:38;;;;;;;1.20;1.00;;;12.20;98.00;;;;;;5068260;28;20493;-69
2021/05/19 08:45:05;;;;;;;1.20;1.00;;;12.00;98.00;;;;;;5070888;28;20462;-72
2021/05/19 08:47:33;;;;;;;1.40;1.30;;;11.80;98.00;;;;;;5067524;28;20462;-72
2021/05/19 08:50:01;;;;;;;1.20;1.00;;;11.80;98.00;;;;;;5071227;28;21201;-72
2021/05/19 08:52:29;;;;;;;1.53;1.10;;;11.80;98.00;;;;;;5066973;28;20483;-72
2021/05/19 08:54:56;;;;;;;1.40;1.17;;;11.80;98.00;;;;;;5070474;28;20451;-72
2021/05/19 08:57:23;;;;;;;1.20;1.00;;;11.90;98.00;;;;;;5068197;28;20456;-72
2021/05/19 08:59:49;;;;;;;1.20;1.00;;;12.00;98.00;;;;;;5071056;28;20779;-72
2021/05/19 09:02:17;;;;;;;1.20;1.00;;;11.90;98.00;;;;;;5068220;28;20991;-72
2021/05/19 09:04:45;;;;;;;1.93;1.30;;;11.70;98.00;;;;;;5070878;28;20451;-72
2021/05/19 09:07:19;;;;;;;1.20;0.97;;;11.80;98.00;;;;;;5068054;28;20469;-73
2021/05/19 09:09:45;;;;;;;1.20;0.90;;;11.90;98.00;;;;;;5071108;28;20521;-72
2021/05/19 09:12:15;;;;;;;1.20;1.00;;;12.00;98.00;;;;;;5068326;28;20452;-72
2021/05/19 09:14:43;;;;;;;1.20;1.00;;;12.10;98.00;;;;;;5070612;28;20462;-72
2021/05/19 09:17:22;;;;;;;1.23;1.10;;;12.20;98.00;;;;;;5067187;28;20792;-72
2021/05/19 09:19:52;;;;;;;1.20;1.00;;;12.40;98.00;;;;;;5070785;28;20471;-71
2021/05/19 09:22:20;;;;;;;1.30;1.10;;;12.50;98.00;;;;;;5067865;28;20464;-72
2021/05/19 09:24:48;;;;;;;2.60;1.30;;;12.70;98.00;;;;;;5070522;28;20537;-73
2021/05/19 09:27:15;;;;;;;1.73;1.33;;;13.00;98.00;;;;;;5069952;28;20460;-72
2021/05/19 09:29:46;;;;;;;1.30;1.10;;;13.10;98.00;;;;;;5071054;28;20455;-72
2021/05/19 09:32:14;;;;;;;1.30;1.17;;;13.30;98.00;;;;;;5071345;28;20481;-73
2021/05/19 09:34:46;;;;;;;1.30;1.10;;;13.50;98.00;;;;;;5072962;28;20474;-71
2021/05/19 09:37:19;;;;;;;1.20;1.00;;;13.60;98.00;;;;;;5070682;28;20541;-72
2021/05/19 09:39:52;;;;;;;1.20;1.00;;;13.80;98.00;;;;;;5074228;28;20555;-71
2021/05/19 09:42:20;;;;;;;1.40;1.00;;;13.80;98.00;;;;;;5071410;28;20486;-71
2021/05/19 09:44:48;;;;;;;1.20;1.00;;;13.90;98.00;;;;;;5073413;28;20880;-72
2021/05/19 09:47:36;;;;;;;1.40;1.10;;;14.10;98.00;;;;;;5071154;28;20462;-72
2021/05/19 09:50:05;;;;;;;1.20;1.00;;;14.30;98.00;;;;;;5073966;28;20651;-71
2021/05/19 09:52:33;;;;;;;1.60;1.27;;;14.40;98.00;;;;;;5071037;28;21202;-72
2021/05/19 09:55:05;;;;;;;1.20;1.00;;;14.50;98.00;;;;;;5073304;28;20818;-72
2021/05/19 09:57:42;;;;;;;1.20;1.10;;;14.60;98.00;;;;;;5071322;28;20458;-71
2021/05/19 10:00:11;;;;;;;1.20;1.00;;;14.80;98.00;;;;;;5074073;28;20489;-72
2021/05/19 10:02:38;;;;;;;1.97;1.30;;;15.10;98.00;;;;;;5071353;28;20513;-73
2021/05/19 10:05:12;;;;;;;1.40;1.30;;;15.40;98.00;;;;;;5073585;28;20489;-75
2021/05/19 10:49:17;;;;;;;1.20;1.00;;;15.60;92.10;;;;;;5107246;27;20596;-77
2021/05/19 10:51:48;;;;;;;1.30;1.10;;;16.00;96.30;;;;;;5109011;28;20452;-77
2021/05/19 10:57:18;;;;;;;1.20;1.07;;;16.70;82.80;;;;;;5106460;28;20461;-76
2021/05/19 11:00:11;;;;;;;1.20;1.10;;;16.70;84.30;;;;;;5108911;28;20481;-76
2021/05/19 11:03:15;;;;;;;1.20;1.10;;;16.70;79.60;;;;;;5106537;28;20444;-75
2021/05/19 11:06:18;;;;;;;1.30;1.10;;;16.90;84.80;;;;;;5086697;27;20498;-76
2021/05/19 11:08:46;;;;;;;1.20;1.00;;;17.20;82.90;;;;;;5106016;28;20492;-76
2021/05/19 11:11:30;;;;;;;1.20;1.00;;;17.30;82.30;;;;;;5108548;28;20811;-76
2021/05/19 11:14:26;;;;;;;1.20;1.10;;;17.30;81.50;;;;;;5106113;28;21320;-76
2021/05/19 11:17:05;;;;;;;1.40;1.10;;;17.60;82.60;;;;;;5108365;28;20792;-75
2021/05/19 11:19:34;;;;;;;1.20;1.10;;;17.90;79.60;;;;;;5108414;28;20851;-75
2021/05/19 11:22:07;;;;;;;1.30;1.10;;;18.10;77.20;;;;;;5106433;28;20458;-75
2021/05/19 11:24:51;;;;;;;1.90;1.20;;;18.20;80.60;;;;;;5107953;28;20463;-75
2021/05/19 11:27:20;;;;;;;1.20;1.10;;;18.50;79.20;;;;;;5105581;28;21141;-77
2021/05/19 11:29:47;;;;;;;1.40;1.20;;;18.50;76.60;;;;;;5106978;28;20455;-76
2021/05/19 11:32:32;;;;;;;1.20;1.03;;;18.50;75.10;;;;;;5105546;28;20506;-76
2021/05/19 11:35:13;;;;;;;1.20;1.10;;;18.40;77.10;;;;;;5107636;28;20512;-76
2021/05/19 11:37:53;;;;;;;1.20;1.10;;;18.60;76.70;;;;;;5105430;28;20490;-76
2021/05/19 11:40:22;;;;;;;1.20;1.00;;;18.90;74.40;;;;;;5106557;28;20525;-76
2021/05/19 11:42:54;;;;;;;1.43;1.20;;;19.30;76.20;;;;;;5105466;28;20504;-76
2021/05/19 11:45:23;;;;;;;1.20;1.20;;;19.50;75.00;;;;;;5107648;28;20455;-76
2021/05/19 11:47:50;;;;;;;1.20;1.00;;;19.60;74.20;;;;;;5106142;28;20467;-76
2021/05/19 11:50:21;;;;;;;1.20;1.10;;;19.20;75.10;;;;;;5109003;28;20459;-75
2021/05/19 11:52:50;;;;;;;1.30;1.30;;;19.00;77.60;;;;;;5106674;28;20461;-75
2021/05/19 11:55:38;;;;;;;1.30;1.10;;;18.50;78.50;;;;;;5107000;28;20466;-74
2021/05/19 11:58:14;;;;;;;1.20;1.10;;;18.60;77.30;;;;;;5105107;28;20479;-76
2021/05/19 12:00:44;;;;;;;1.20;1.10;;;18.70;75.20;;;;;;5094117;28;20546;-76
2021/05/19 12:03:11;;;;;;;1.20;1.00;;;19.00;74.40;;;;;;5091743;28;20460;-75
2021/05/19 12:05:49;;;;;;;1.20;1.13;;;19.10;72.20;;;;;;5094350;28;20498;-76
2021/05/19 12:08:17;;;;;;;1.20;1.10;;;19.00;72.70;;;;;;5090099;28;20452;-76
2021/05/19 12:10:46;;;;;;;1.20;1.20;;;19.20;76.10;;;;;;5093229;28;20994;-76
2021/05/19 12:13:13;;;;;;;1.20;1.03;;;19.20;73.50;;;;;;5091655;28;20452;-76
2021/05/19 12:15:40;;;;;;;1.20;1.00;;;19.20;74.50;;;;;;5094268;28;20497;-76
2021/05/19 12:18:09;;;;;;;2.00;1.20;;;19.10;73.90;;;;;;5072052;28;20477;-77
2021/05/19 12:20:37;;;;;;;1.40;1.20;;;18.90;74.50;;;;;;5073196;28;20453;-72
2021/05/19 12:23:06;;;;;;;1.20;1.03;;;18.50;73.80;;;;;;5069798;28;20449;-74
2021/05/19 12:25:34;;;;;;;1.20;1.03;;;18.30;75.00;;;;;;5073080;28;20511;-75
2021/05/19 12:28:04;;;;;;;1.30;1.20;;;18.50;74.70;;;;;;5071196;28;20802;-74
2021/05/19 12:30:43;;;;;;;1.80;1.40;;;18.50;74.10;;;;;;5073068;28;20453;-76
2021/05/19 12:33:10;;;;;;;1.30;1.10;;;18.70;74.80;;;;;;5070785;28;20479;-74
2021/05/19 12:35:42;;;;;;;1.20;1.00;;;19.00;74.50;;;;;;5073023;28;20452;-74
2021/05/19 12:38:09;;;;;;;1.20;1.00;;;19.10;74.20;;;;;;5070769;28;20481;-74
2021/05/19 12:40:38;;;;;;;1.20;1.20;;;19.20;73.40;;;;;;5072728;28;20457;-74
2021/05/19 12:43:07;;;;;;;1.20;1.10;;;19.50;73.00;;;;;;5070550;28;20456;-73
2021/05/19 12:45:36;;;;;;;1.20;1.00;;;19.40;70.10;;;;;;5072836;28;20468;-72
2021/05/19 12:48:06;;;;;;;1.30;1.20;;;19.50;71.90;;;;;;5070603;28;20508;-73
2021/05/19 12:50:42;;;;;;;1.20;1.10;;;19.80;71.70;;;;;;5072642;28;20449;-72
2021/05/19 12:53:11;;;;;;;1.40;1.20;;;20.30;69.70;;;;;;5070597;28;20460;-73
2021/05/19 12:55:37;;;;;;;1.60;1.43;;;20.20;68.50;;;;;;5072364;28;20464;-72
2021/05/19 12:58:09;;;;;;;1.20;1.00;;;20.30;72.70;;;;;;5070525;28;20882;-72
2021/05/19 13:00:36;;;;;;;1.30;1.10;;;20.30;70.60;;;;;;5072357;28;20457;-72
2021/05/19 13:03:03;;;;;;;1.60;1.00;;;20.30;69.10;;;;;;5070340;28;20532;-72
2021/05/19 13:05:30;;;;;;;1.37;1.27;;;20.40;67.50;;;;;;5072166;28;20456;-72
2021/05/19 13:08:00;;;;;;;1.20;1.17;;;20.20;70.70;;;;;;5070132;28;20502;-72
2021/05/19 13:10:31;;;;;;;1.20;1.00;;;20.10;70.90;;;;;;5071357;28;20453;-72
2021/05/19 13:13:05;;;;;;;1.20;1.10;;;20.50;70.00;;;;;;5069942;28;20548;-72
2021/05/19 13:15:36;;;;;;;1.20;1.10;;;20.70;68.80;;;;;;5072105;28;20889;-73
2021/05/19 13:18:07;;;;;;;1.20;1.00;;;20.70;66.40;;;;;;5069765;28;20488;-74
2021/05/19 13:20:41;;;;;;;1.30;1.20;;;21.00;66.60;;;;;;5071900;28;20821;-72
2021/05/19 13:23:09;;;;;;;1.30;1.20;;;21.30;64.60;;;;;;5069855;28;20825;-72
2021/05/19 13:25:36;;;;;;;1.70;1.20;;;21.50;64.10;;;;;;5071896;28;20540;-72
2021/05/19 13:28:06;;;;;;;1.20;1.00;;;21.30;60.30;;;;;;5069663;28;20453;-72
2021/05/19 13:30:35;;;;;;;1.20;1.07;;;21.00;63.80;;;;;;5070578;28;20963;-73
2021/05/19 13:33:18;;;;;;;1.20;1.10;;;20.70;66.30;;;;;;5069687;28;20453;-73
2021/05/19 13:38:28;;;;;;;1.20;1.20;;;21.50;65.90;;;;;;5069550;28;20476;-72
2021/05/19 13:40:55;;;;;;;1.30;1.10;;;21.30;66.30;;;;;;5071701;28;20459;-74
2021/05/19 13:43:22;;;;;;;1.30;1.20;;;21.50;67.40;;;;;;5070172;28;20494;-73